| time (UTC) | temp F | wind direction | speed MPH | gust MPH | rain 1hr in | rain 24hr in | rain mn in | humidity % | barometer mb |
| 20260509221546 | 68 | 360 | 5.0 | 10.0 | 0.00 | 0.00 | 0.00 | 66 | 1017.6 |
| 20260509220044 | 67 | 11 | 3.0 | 10.0 | 0.00 | 0.00 | 0.00 | 67 | 1017.6 |
| 20260509214556 | 68 | 294 | 4.0 | 12.0 | 0.00 | 0.00 | 0.00 | 66 | 1018.0 |
| 20260509213041 | 69 | 287 | 3.0 | 14.0 | 0.00 | 0.00 | 0.00 | 65 | 1018.3 |
| 20260509211546 | 69 | 242 | 6.0 | 12.0 | 0.00 | 0.00 | 0.00 | 64 | 1018.6 |
| 20260509210046 | 68 | 355 | 4.0 | 11.0 | 0.00 | 0.00 | 0.00 | 67 | 1018.5 |
| 20260509204545 | 67 | 267 | 6.0 | 14.0 | 0.00 | 0.00 | 0.00 | 68 | 1018.7 |
| 20260509203043 | 67 | 291 | 4.0 | 13.0 | 0.00 | 0.00 | 0.00 | 70 | 1019.1 |
| 20260509201543 | 67 | 310 | 4.0 | 13.0 | 0.00 | 0.00 | 0.00 | 68 | 1019.2 |
| 20260509200046 | 66 | 355 | 3.0 | 13.0 | 0.00 | 0.00 | 0.00 | 71 | 1019.2 |
| 20260509194550 | 68 | 267 | 6.0 | 13.0 | 0.00 | 0.00 | 0.00 | 67 | 1019.4 |
| 20260509193039 | 69 | 333 | 4.0 | 9.0 | 0.00 | 0.00 | 0.00 | 66 | 1019.6 |
| 20260509191542 | 68 | 5 | 3.0 | 10.0 | 0.00 | 0.00 | 0.00 | 68 | 1019.5 |
| 20260509190042 | 67 | 302 | 4.0 | 10.0 | 0.00 | 0.00 | 0.00 | 69 | 1019.7 |
| 20260509184541 | 66 | 348 | 3.0 | 9.0 | 0.00 | 0.00 | 0.00 | 71 | 1019.8 |
| 20260509183058 | 64 | 355 | 4.0 | 9.0 | 0.00 | 0.00 | 0.00 | 74 | 1019.9 |
| 20260509181541 | 63 | 305 | 2.0 | 8.0 | 0.00 | 0.00 | 0.00 | 75 | 1019.9 |
| 20260509180040 | 62 | 331 | 2.0 | 11.0 | 0.00 | 0.00 | 0.00 | 77 | 1020.0 |
| 20260509174557 | 61 | 355 | 3.0 | 9.0 | 0.00 | 0.00 | 0.00 | 75 | 1020.0 |
| 20260509173045 | 60 | 298 | 3.0 | 8.0 | 0.00 | 0.00 | 0.00 | 78 | 1020.1 |
| 20260509171545 | 60 | 265 | 2.0 | 6.0 | 0.00 | 0.00 | 0.00 | 79 | 1020.2 |
| 20260509170041 | 59 | 325 | 2.0 | 5.0 | 0.00 | 0.00 | 0.00 | 80 | 1020.2 |
| 20260509164541 | 58 | 326 | 1.0 | 4.0 | 0.00 | 0.00 | 0.00 | 82 | 1020.1 |
| 20260509163045 | 57 | 285 | 1.0 | 3.0 | 0.00 | 0.00 | 0.00 | 83 | 1020.1 |
| 20260509161545 | 56 | 0 | 0.0 | 3.0 | 0.00 | 0.00 | 0.00 | 86 | 1020.1 |
| 20260509160042 | 54 | 0 | 0.0 | 2.0 | 0.00 | 0.00 | 0.00 | 91 | 1020.1 |
| 20260509154542 | 51 | 0 | 0.0 | 2.0 | 0.00 | 0.00 | 0.00 | 96 | 1020.2 |
| 20260509153049 | 50 | 0 | 0.0 | 2.0 | 0.00 | 0.00 | 0.00 | 96 | 1020.4 |
| 20260509151543 | 48 | 0 | 0.0 | 2.0 | 0.00 | 0.00 | 0.00 | 96 | 1020.7 |
| 20260509150043 | 47 | 0 | 0.0 | 4.0 | 0.00 | 0.00 | 0.00 | 97 | 1020.6 |
| 20260509144542 | 46 | 183 | 0.0 | 2.0 | 0.00 | 0.00 | 0.00 | 97 | 1020.6 |
| 20260509143051 | 45 | 182 | 0.0 | 4.0 | 0.00 | 0.00 | 0.00 | 97 | 1021.1 |
| 20260509141541 | 45 | 0 | 0.0 | 1.0 | 0.00 | 0.00 | 0.00 | 97 | 1021.3 |
| 20260509140056 | 43 | 0 | 0.0 | 1.0 | 0.00 | 0.00 | 0.00 | 97 | 1020.9 |
| 20260509134541 | 41 | 0 | 0.0 | 0.0 | 0.00 | 0.00 | 0.00 | 96 | 1020.7 |
| 20260509133040 | 41 | 0 | 0.0 | 2.0 | 0.00 | 0.00 | 0.00 | 96 | 1020.9 |
| 20260509131540 | 41 | 0 | 0.0 | 2.0 | 0.00 | 0.00 | 0.00 | 96 | 1020.8 |
| 20260509130044 | 41 | 0 | 0.0 | 0.0 | 0.00 | 0.00 | 0.00 | 96 | 1021.1 |
| 20260509124542 | 41 | 0 | 0.0 | 0.0 | 0.00 | 0.00 | 0.00 | 95 | 1021.1 |
| 20260509123048 | 42 | 0 | 0.0 | 0.0 | 0.00 | 0.00 | 0.00 | 95 | 1021.2 |
| 20260509121541 | 42 | 0 | 0.0 | 1.0 | 0.00 | 0.00 | 0.00 | 95 | 1021.4 |
| 20260509120045 | 42 | 0 | 0.0 | 1.0 | 0.00 | 0.00 | 0.00 | 95 | 1021.3 |
| 20260509114542 | 42 | 0 | 0.0 | 1.0 | 0.00 | 0.00 | 0.00 | 95 | 1021.7 |
| 20260509113041 | 43 | 0 | 0.0 | 0.0 | 0.00 | 0.00 | 0.00 | 95 | 1021.7 |
| 20260509111540 | 43 | 0 | 0.0 | 0.0 | 0.00 | 0.00 | 0.00 | 95 | 1021.6 |
| 20260509110041 | 44 | 0 | 0.0 | 1.0 | 0.00 | 0.00 | 0.00 | 95 | 1021.7 |
| 20260509104539 | 43 | 0 | 0.0 | 0.0 | 0.00 | 0.00 | 0.00 | 95 | 1021.6 |
| 20260509103048 | 43 | 0 | 0.0 | 0.0 | 0.00 | 0.00 | 0.00 | 95 | 1021.9 |
| 20260509101542 | 44 | 0 | 0.0 | 2.0 | 0.00 | 0.00 | 0.00 | 95 | 1022.1 |
| 20260509100049 | 45 | 0 | 0.0 | 2.0 | 0.00 | 0.00 | 0.00 | 95 | 1022.1 |
| 20260509094542 | 44 | 0 | 0.0 | 2.0 | 0.00 | 0.00 | 0.00 | 94 | 1022.2 |
| 20260509093044 | 45 | 102 | 0.0 | 2.0 | 0.00 | 0.00 | 0.00 | 94 | 1022.2 |
| 20260509091543 | 45 | 0 | 0.0 | 1.0 | 0.00 | 0.00 | 0.00 | 94 | 1022.3 |
| 20260509090052 | 46 | 0 | 0.0 | 1.0 | 0.00 | 0.00 | 0.00 | 94 | 1022.4 |
| 20260509084541 | 46 | 0 | 0.0 | 0.0 | 0.00 | 0.00 | 0.00 | 94 | 1022.5 |
| 20260509083043 | 46 | 0 | 0.0 | 0.0 | 0.00 | 0.00 | 0.00 | 93 | 1022.6 |
| 20260509081542 | 47 | 0 | 0.0 | 1.0 | 0.00 | 0.00 | 0.00 | 93 | 1022.7 |
| 20260509080042 | 47 | 0 | 0.0 | 0.0 | 0.00 | 0.00 | 0.00 | 93 | 1022.6 |
| 20260509074547 | 48 | 0 | 0.0 | 1.0 | 0.00 | 0.00 | 0.00 | 93 | 1022.6 |
| 20260509073043 | 48 | 0 | 0.0 | 1.0 | 0.00 | 0.00 | 0.00 | 92 | 1022.7 |
| 20260509071546 | 49 | 0 | 0.0 | 1.0 | 0.00 | 0.00 | 0.00 | 92 | 1022.7 |
| 20260509070044 | 49 | 0 | 0.0 | 0.0 | 0.00 | 0.00 | 0.00 | 92 | 1022.9 |
| 20260509064541 | 50 | 0 | 0.0 | 2.0 | 0.00 | 0.00 | 0.00 | 92 | 1023.0 |
| 20260509063041 | 50 | 0 | 0.0 | 1.0 | 0.00 | 0.00 | 0.00 | 91 | 1023.0 |
| 20260509061538 | 50 | 0 | 0.0 | 1.0 | 0.00 | 0.00 | 0.00 | 90 | 1023.1 |
| 20260509060044 | 51 | 0 | 0.0 | 0.0 | 0.00 | 0.00 | 0.00 | 90 | 1023.2 |
| 20260509054558 | 51 | 0 | 0.0 | 0.0 | 0.00 | 0.00 | 0.00 | 88 | 1023.1 |
| 20260509053042 | 52 | 0 | 0.0 | 0.0 | 0.00 | 0.00 | 0.00 | 87 | 1023.1 |
| 20260509051542 | 53 | 0 | 0.0 | 0.0 | 0.00 | 0.00 | 0.00 | 86 | 1023.1 |
| 20260509050051 | 54 | 0 | 0.0 | 0.0 | 0.00 | 0.00 | 0.00 | 85 | 1023.0 |
| 20260509044537 | 54 | 0 | 0.0 | 1.0 | 0.00 | 0.00 | 0.00 | 85 | 1023.0 |
| 20260509043053 | 55 | 0 | 0.0 | 3.0 | 0.00 | 0.00 | 0.00 | 85 | 1023.0 |
| 20260509041542 | 55 | 0 | 0.0 | 3.0 | 0.00 | 0.00 | 0.00 | 84 | 1023.0 |
| 20260509040045 | 56 | 355 | 0.0 | 3.0 | 0.00 | 0.00 | 0.00 | 83 | 1022.9 |
| 20260509034541 | 56 | 0 | 0.0 | 3.0 | 0.00 | 0.00 | 0.00 | 83 | 1022.7 |
| 20260509033040 | 56 | 0 | 0.0 | 3.0 | 0.00 | 0.00 | 0.00 | 82 | 1022.7 |
| 20260509031612 | 56 | 348 | 0.0 | 3.0 | 0.00 | 0.00 | 0.00 | 82 | 1022.8 |
| 20260509030042 | 56 | 318 | 1.0 | 4.0 | 0.00 | 0.00 | 0.00 | 81 | 1022.9 |
| 20260509024542 | 57 | 355 | 1.0 | 5.0 | 0.00 | 0.00 | 0.00 | 80 | 1022.8 |
| 20260509023041 | 57 | 0 | 1.0 | 5.0 | 0.00 | 0.00 | 0.00 | 79 | 1022.9 |
| 20260509021540 | 58 | 336 | 1.0 | 7.0 | 0.00 | 0.00 | 0.00 | 78 | 1023.0 |
| 20260509020037 | 58 | 290 | 2.0 | 8.0 | 0.00 | 0.00 | 0.00 | 77 | 1022.7 |
| 20260509014543 | 59 | 360 | 1.0 | 5.0 | 0.00 | 0.00 | 0.00 | 77 | 1022.7 |
| 20260509013045 | 59 | 283 | 2.0 | 6.0 | 0.00 | 0.00 | 0.00 | 75 | 1022.7 |
| 20260509011546 | 59 | 259 | 1.0 | 5.0 | 0.00 | 0.00 | 0.00 | 74 | 1022.8 |
| 20260509010044 | 60 | 247 | 2.0 | 5.0 | 0.00 | 0.00 | 0.00 | 73 | 1022.9 |
| 20260509004548 | 60 | 228 | 2.0 | 7.0 | 0.00 | 0.00 | 0.00 | 72 | 1022.9 |
| 20260509003036 | 60 | 193 | 0.0 | 6.0 | 0.00 | 0.00 | 0.00 | 74 | 1023.1 |
| 20260509001541 | 59 | 259 | 2.0 | 8.0 | 0.00 | 0.00 | 0.00 | 74 | 1023.1 |
| 20260509000053 | 60 | 269 | 2.0 | 9.0 | 0.00 | 0.00 | 0.00 | 72 | 1023.2 |
| 20260508234541 | 61 | 256 | 3.0 | 9.0 | 0.00 | 0.00 | 0.00 | 70 | 1023.1 |
| 20260508233040 | 61 | 238 | 3.0 | 9.0 | 0.00 | 0.00 | 0.00 | 69 | 1023.2 |
| 20260508231548 | 62 | 267 | 2.0 | 10.0 | 0.00 | 0.00 | 0.00 | 68 | 1023.1 |
| 20260508230041 | 62 | 217 | 4.0 | 11.0 | 0.00 | 0.00 | 0.00 | 68 | 1023.1 |
| 20260508224541 | 62 | 294 | 2.0 | 11.0 | 0.00 | 0.00 | 0.00 | 67 | 1023.1 |
| 20260508223041 | 63 | 282 | 2.0 | 12.0 | 0.00 | 0.00 | 0.00 | 67 | 1023.0 |